Time;durP1;ratioP1;P1;durP2;ratioP2;P2;SDS_P1;SDS_P2;PMS_P1;PMS_P2;Temp;Humidity;BMP_temperature;BMP_pressure;BME280_temperature;BME280_humidity;BME280_pressure;Samples;Min_cycle;Max_cycle;Signal;HPM_P1;HPM_P2
2021/03/04 00:02:07;;;;;;;0.20;0.20;;;6.30;99.90;;;;;;5075708;28;20020;-90
2021/03/04 00:04:33;;;;;;;;;;;6.20;99.90;;;;;;5092665;28;20023;-90
2021/03/04 00:07:00;;;;;;;;;;;6.10;99.90;;;;;;5087429;28;19997;-90
2021/03/04 00:09:27;;;;;;;;;;;6.10;99.90;;;;;;5077379;28;19943;-90
2021/03/04 00:11:54;;;;;;;;;;;6.00;99.90;;;;;;5074485;28;19908;-90
2021/03/04 00:14:20;;;;;;;;;;;6.10;99.90;;;;;;5091486;28;19908;-91
2021/03/04 00:16:47;;;;;;;;;;;6.10;99.90;;;;;;5075696;28;19904;-90
2021/03/04 00:19:13;;;;;;;;;;;6.10;99.90;;;;;;5087610;28;19912;-90
2021/03/04 00:21:40;;;;;;;;;;;6.30;99.90;;;;;;5081204;28;19911;-90
2021/03/04 00:24:06;;;;;;;;;;;6.00;99.90;;;;;;5091246;28;20402;-90
2021/03/04 00:26:34;;;;;;;;;;;6.00;99.90;;;;;;5079796;28;19965;-89
2021/03/04 00:29:00;;;;;;;;;;;6.00;99.90;;;;;;5089519;28;19998;-89
2021/03/04 00:31:26;;;;;;;;;;;5.90;99.90;;;;;;5085127;28;19962;-90
2021/03/04 00:33:51;;;;;;;;;;;5.90;99.90;;;;;;5082639;28;19915;-89
2021/03/04 00:36:17;;;;;;;;;;;5.90;99.90;;;;;;5084099;28;19944;-90
2021/03/04 00:38:43;;;;;;;;;;;5.90;99.90;;;;;;5080202;28;19904;-89
2021/03/04 00:41:09;;;;;;;;;;;5.90;99.90;;;;;;5075825;28;20387;-89
2021/03/04 00:43:34;;;;;;;;;;;5.70;99.90;;;;;;5089570;28;20354;-89
2021/03/04 00:46:00;;;;;;;;;;;5.70;99.90;;;;;;5085811;28;20388;-88
2021/03/04 00:48:25;;;;;;;;;;;5.70;99.90;;;;;;5088087;28;19904;-87
2021/03/04 00:50:51;;;;;;;;;;;5.60;99.90;;;;;;5072477;28;19915;-87
2021/03/04 00:53:17;;;;;;;;;;;5.60;99.90;;;;;;5074316;28;19963;-88
2021/03/04 00:55:43;;;;;;;;;;;5.50;99.90;;;;;;5076997;28;20387;-87
2021/03/04 00:58:09;;;;;;;;;;;5.40;99.90;;;;;;5080085;28;19908;-88
2021/03/04 01:00:36;;;;;;;;;;;5.30;99.90;;;;;;5078622;28;20410;-88
2021/03/04 01:03:03;;;;;;;;;;;5.30;99.90;;;;;;5083193;28;19911;-88
2021/03/04 01:05:29;;;;;;;;;;;5.50;99.90;;;;;;5091552;28;19904;-88
2021/03/04 01:07:56;;;;;;;;;;;5.50;99.90;;;;;;5078001;28;19966;-89
2021/03/04 01:10:28;;;;;;;;;;;5.50;99.90;;;;;;5077061;28;19939;-88
2021/03/04 01:12:54;;;;;;;;;;;5.50;99.90;;;;;;5076345;28;19919;-88
2021/03/04 01:15:21;;;;;;;;;;;5.40;99.90;;;;;;5080711;28;20292;-89
2021/03/04 01:17:48;;;;;;;;;;;5.40;99.90;;;;;;5083150;28;19904;-88
2021/03/04 01:20:15;;;;;;;;;;;5.30;99.90;;;;;;5077078;28;19920;-87
2021/03/04 01:22:42;;;;;;;;;;;5.30;99.90;;;;;;5077278;28;19999;-87
2021/03/04 01:25:08;;;;;;;;;;;5.30;99.90;;;;;;5072404;28;19915;-87
2021/03/04 01:27:35;;;;;;;;;;;5.20;99.90;;;;;;5068363;28;19931;-87
2021/03/04 01:30:01;;;;;;;;;;;5.10;99.90;;;;;;5079796;28;19916;-87
2021/03/04 01:32:27;;;;;;;;;;;5.00;99.90;;;;;;5073446;28;19904;-87
2021/03/04 01:34:52;;;;;;;;;;;5.00;99.90;;;;;;5089654;28;20030;-87
2021/03/04 01:37:18;;;;;;;;;;;4.90;99.90;;;;;;5090165;28;19911;-87
2021/03/04 01:39:43;;;;;;;;;;;4.90;99.90;;;;;;5085057;28;19953;-88
2021/03/04 01:42:09;;;;;;;;;;;4.90;99.90;;;;;;5090315;28;19915;-87
2021/03/04 01:44:35;;;;;;;;;;;4.90;99.90;;;;;;5091177;28;19911;-87
2021/03/04 01:47:00;;;;;;;;;;;4.90;99.90;;;;;;5082655;28;19909;-87
2021/03/04 01:49:26;;;;;;;;;;;4.90;99.90;;;;;;5075970;28;19908;-87
2021/03/04 01:51:52;;;;;;;;;;;4.90;99.90;;;;;;5073691;28;19908;-87
2021/03/04 01:54:18;;;;;;;;;;;5.00;99.90;;;;;;5091174;28;19964;-88
2021/03/04 01:56:46;;;;;;;;;;;5.00;99.90;;;;;;5090232;28;19928;-87
2021/03/04 01:59:11;;;;;;;;;;;4.90;99.90;;;;;;5089195;28;19911;-88
2021/03/04 02:01:37;;;;;;;;;;;5.00;99.90;;;;;;5073583;28;19904;-87
2021/03/04 02:04:03;;;;;;;;;;;4.90;99.90;;;;;;5073830;28;20327;-87
2021/03/04 02:06:39;;;;;;;;;;;4.90;99.90;;;;;;5079382;28;19986;-87
2021/03/04 02:09:06;;;;;;;;;;;4.80;99.90;;;;;;5089795;28;20277;-87
2021/03/04 02:11:35;;;;;;;;;;;4.80;99.90;;;;;;5083616;28;20264;-87
2021/03/04 02:14:00;;;;;;;;;;;4.80;99.90;;;;;;5072569;28;19908;-86
2021/03/04 02:16:52;;;;;;;;;;;4.70;99.90;;;;;;5080737;28;20011;-88
2021/03/04 02:19:31;;;;;;;;;;;4.90;99.90;;;;;;5087273;28;19919;-87
2021/03/04 02:22:13;;;;;;;;;;;4.80;99.90;;;;;;5072837;28;19912;-88
2021/03/04 02:24:57;;;;;;;;;;;4.70;99.90;;;;;;5075804;28;19904;-88
2021/03/04 02:27:27;;;;;;;;;;;4.60;99.90;;;;;;5088992;28;19912;-87
2021/03/04 02:29:55;;;;;;;;;;;4.70;99.90;;;;;;5092306;28;20057;-87
2021/03/04 02:32:23;;;;;;;;;;;4.60;99.90;;;;;;5080174;28;19970;-88
2021/03/04 02:34:50;;;;;;;;;;;4.60;99.90;;;;;;5081643;28;19998;-88
2021/03/04 02:37:17;;;;;;;;;;;4.40;99.90;;;;;;5092129;28;20295;-88
2021/03/04 02:39:44;;;;;;;;;;;4.30;99.90;;;;;;5093854;28;19912;-88
2021/03/04 02:42:09;;;;;;;;;;;4.20;99.90;;;;;;5094424;28;19911;-88
2021/03/04 02:44:35;;;;;;;;;;;4.40;99.90;;;;;;5083200;28;19908;-88
2021/03/04 02:47:01;;;;;;;;;;;4.30;99.90;;;;;;5088657;28;19908;-87
2021/03/04 02:49:27;;;;;;;;;;;4.50;99.90;;;;;;5092008;28;19939;-86
2021/03/04 02:51:53;;;;;;;;;;;4.20;99.90;;;;;;5089458;28;19931;-87
2021/03/04 02:54:19;;;;;;;;;;;4.20;99.90;;;;;;5081057;28;20729;-87
2021/03/04 02:56:45;;;;;;;;;;;4.10;99.90;;;;;;5090875;28;19908;-87
2021/03/04 02:59:11;;;;;;;;;;;4.10;99.90;;;;;;5086449;28;19911;-88
2021/03/04 03:01:38;;;;;;;;;;;4.30;99.90;;;;;;5088290;28;19912;-88
2021/03/04 03:04:04;;;;;;;;;;;4.20;99.90;;;;;;5073808;28;19958;-88
2021/03/04 03:06:32;;;;;;;;;;;4.10;99.90;;;;;;5086999;28;20045;-88
2021/03/04 03:08:57;;;;;;;;;;;4.30;99.90;;;;;;5084665;28;20340;-86
2021/03/04 03:11:23;;;;;;;;;;;4.20;99.90;;;;;;5088006;28;20002;-87
2021/03/04 03:13:50;;;;;;;;;;;4.20;99.90;;;;;;5088883;28;19912;-87
2021/03/04 03:16:16;;;;;;;;;;;4.10;99.90;;;;;;5083336;28;19908;-87
2021/03/04 03:18:42;;;;;;;;;;;4.20;99.90;;;;;;5093072;28;19953;-88
2021/03/04 03:21:07;;;;;;;;;;;4.10;99.90;;;;;;5090582;28;19943;-87
2021/03/04 03:23:33;;;;;;;;;;;4.00;99.90;;;;;;5081806;28;19904;-88
2021/03/04 03:25:59;;;;;;;;;;;4.20;99.90;;;;;;5092314;28;20031;-87
2021/03/04 03:28:24;;;;;;;;;;;4.10;99.90;;;;;;5080787;28;19959;-88
2021/03/04 03:30:50;;;;;;;;;;;4.40;99.90;;;;;;5087792;28;19969;-87
2021/03/04 03:33:17;;;;;;;;;;;4.10;99.90;;;;;;5093188;28;20369;-88
2021/03/04 03:35:43;;;;;;;;;;;4.10;99.90;;;;;;5088655;28;19947;-88
2021/03/04 03:38:10;;;;;;;;;;;4.10;99.90;;;;;;5088013;28;20006;-88
2021/03/04 03:40:36;;;;;;;;;;;4.10;99.90;;;;;;5089781;28;19957;-87
2021/03/04 03:43:06;;;;;;;;;;;3.90;99.90;;;;;;5078380;28;20022;-88
2021/03/04 03:45:36;;;;;;;;;;;4.10;99.90;;;;;;5082592;28;19988;-88
2021/03/04 03:48:02;;;;;;;;;;;4.20;99.90;;;;;;5092789;28;20425;-87
2021/03/04 03:50:30;;;;;;;;;;;4.30;99.90;;;;;;5083516;28;20391;-86
2021/03/04 03:52:56;;;;;;;;;;;4.10;99.90;;;;;;5093293;28;20402;-87
2021/03/04 03:55:23;;;;;;;;;;;4.10;99.90;;;;;;5088472;28;20018;-87
2021/03/04 03:57:50;;;;;;;;;;;4.20;99.90;;;;;;5080986;28;20410;-87
2021/03/04 04:00:23;;;;;;;;;;;4.00;99.90;;;;;;5081261;28;20307;-87
2021/03/04 04:02:49;;;;;;;;;;;3.90;99.90;;;;;;5076246;28;19908;-86
2021/03/04 04:05:15;;;;;;;;;;;3.90;99.90;;;;;;5084867;28;19909;-87
2021/03/04 04:07:41;;;;;;;;;;;3.90;99.90;;;;;;5082298;28;20602;-87
2021/03/04 04:10:07;;;;;;;;;;;4.00;99.90;;;;;;5085569;28;20287;-87
2021/03/04 04:12:33;;;;;;;;;;;3.80;99.90;;;;;;5092971;28;19908;-87
2021/03/04 04:14:58;;;;;;;;;;;3.70;99.90;;;;;;5086899;28;19908;-87
2021/03/04 04:17:24;;;;;;;;;;;3.80;99.90;;;;;;5088666;28;19908;-87
2021/03/04 04:19:50;;;;;;;;;;;3.80;99.90;;;;;;5074342;28;19952;-87
2021/03/04 04:22:16;;;;;;;;;;;3.90;99.90;;;;;;5086359;28;19905;-87
2021/03/04 04:24:42;;;;;;;;;;;3.80;99.90;;;;;;5072250;28;20079;-87
2021/03/04 04:27:08;;;;;;;;;;;3.90;99.90;;;;;;5074195;28;19910;-87
2021/03/04 04:29:33;;;;;;;;;;;3.60;99.90;;;;;;5078553;28;19916;-87
2021/03/04 04:32:00;;;;;;;;;;;3.60;99.90;;;;;;5086815;28;19919;-87
2021/03/04 04:34:25;;;;;;;;;;;3.70;99.90;;;;;;5080355;28;20348;-87
2021/03/04 04:36:51;;;;;;;;;;;3.60;99.90;;;;;;5082424;28;19948;-87
2021/03/04 04:39:16;;;;;;;;;;;3.50;99.90;;;;;;5073726;28;19911;-87
2021/03/04 04:41:42;;;;;;;;;;;3.30;99.90;;;;;;5090700;28;20367;-87
2021/03/04 04:44:08;;;;;;;;;;;3.30;99.90;;;;;;5092210;28;19937;-87
2021/03/04 04:46:34;;;;;;;;;;;3.40;99.90;;;;;;5082714;28;20430;-87
2021/03/04 04:48:59;;;;;;;;;;;3.40;99.90;;;;;;5084091;28;19923;-86
2021/03/04 04:51:25;;;;;;;;;;;3.40;99.90;;;;;;5074438;28;19904;-87
2021/03/04 04:53:50;;;;;;;;;;;3.30;99.90;;;;;;5079525;28;19916;-86
2021/03/04 04:56:16;;;;;;;;;;;3.30;99.90;;;;;;5090467;28;19904;-87
2021/03/04 04:58:42;;;;;;;;;;;3.40;99.90;;;;;;5073145;28;19912;-86
2021/03/04 05:01:07;;;;;;;;;;;3.30;99.90;;;;;;5080235;28;20440;-88
2021/03/04 05:03:33;;;;;;;;;;;3.30;99.90;;;;;;5076999;28;19956;-87
2021/03/04 05:05:58;;;;;;;;;;;3.30;99.90;;;;;;5082095;28;19904;-87
2021/03/04 05:08:25;;;;;;;;;;;3.30;99.90;;;;;;5071399;28;19912;-86
2021/03/04 05:10:55;;;;;;;;;;;3.20;99.90;;;;;;5087811;28;19904;-87
2021/03/04 05:13:22;;;;;;;;;;;3.10;99.90;;;;;;5081705;28;20368;-86
2021/03/04 05:15:47;;;;;;;;;;;3.10;99.90;;;;;;5077760;28;19957;-88
2021/03/04 05:18:13;;;;;;;;;;;3.20;99.90;;;;;;5088856;28;19982;-87
2021/03/04 05:20:39;;;;;;;;;;;3.10;99.90;;;;;;5086275;28;19908;-88
2021/03/04 05:23:04;;;;;;;;;;;3.10;99.90;;;;;;5080305;28;19991;-86
2021/03/04 05:25:30;;;;;;;;;;;3.10;99.90;;;;;;5091852;28;19947;-87
2021/03/04 05:27:55;;;;;;;;;;;3.10;99.90;;;;;;5083054;28;19908;-88
2021/03/04 05:30:21;;;;;;;;;;;3.10;99.90;;;;;;5079705;28;19954;-88
2021/03/04 05:32:47;;;;;;;;;;;3.10;99.90;;;;;;5092350;28;19982;-87
2021/03/04 05:35:12;;;;;;;;;;;3.00;99.90;;;;;;5086907;28;19920;-87
2021/03/04 05:37:38;;;;;;;;;;;3.10;99.90;;;;;;5076926;28;19908;-87
2021/03/04 05:40:04;;;;;;;;;;;3.00;99.90;;;;;;5086743;28;20003;-88
2021/03/04 05:42:30;;;;;;;;;;;3.10;99.90;;;;;;5083414;28;19956;-87
2021/03/04 05:44:56;;;;;;;;;;;3.00;99.90;;;;;;5085652;28;19908;-90
2021/03/04 05:47:22;;;;;;;;;;;3.00;99.90;;;;;;5073732;28;19908;-90
2021/03/04 05:50:05;;;;;;;;;;;2.90;99.90;;;;;;5073502;28;19908;-91
2021/03/04 05:52:34;;;;;;;;;;;3.00;99.90;;;;;;5080874;28;19909;-90
2021/03/04 05:55:00;;;;;;;;;;;2.90;99.90;;;;;;5088544;28;20344;-89
2021/03/04 05:57:26;;;;;;;;;;;2.90;99.90;;;;;;5085651;28;19904;-89
2021/03/04 05:59:53;;;;;;;;;;;3.00;99.90;;;;;;5075636;28;19981;-88
2021/03/04 06:02:20;;;;;;;;;;;2.90;99.90;;;;;;5083102;28;19906;-87
2021/03/04 06:04:45;;;;;;;;;;;2.80;99.90;;;;;;5085436;28;19904;-87
2021/03/04 06:07:11;;;;;;;;;;;2.80;99.90;;;;;;5093418;28;19961;-88
2021/03/04 06:09:37;;;;;;;;;;;2.90;99.90;;;;;;5089832;28;19961;-89
2021/03/04 06:12:03;;;;;;;;;;;2.90;99.90;;;;;;5078370;28;20437;-88
2021/03/04 06:14:29;;;;;;;;;;;2.80;99.90;;;;;;5074773;28;19913;-90
2021/03/04 06:16:55;;;;;;;;;;;2.80;99.90;;;;;;5081192;28;19971;-89
2021/03/04 06:19:21;;;;;;;;;;;2.80;99.90;;;;;;5092361;28;19947;-90
2021/03/04 06:21:57;;;;;;;;;;;2.80;99.90;;;;;;5087246;28;19919;-89
2021/03/04 06:24:23;;;;;;;;;;;2.80;99.90;;;;;;5087548;28;19959;-90
2021/03/04 06:26:52;;;;;;;;;;;2.90;99.90;;;;;;5086780;28;19946;-90
2021/03/04 06:29:19;;;;;;;;;;;2.90;99.90;;;;;;5075622;28;19908;-89
2021/03/04 06:31:45;;;;;;;;;;;2.80;99.90;;;;;;5076329;28;19931;-90
2021/03/04 06:34:15;;;;;;;;;;;2.90;99.90;;;;;;5082116;28;19916;-90
2021/03/04 06:36:50;;;;;;;;;;;2.90;99.90;;;;;;5081452;28;19908;-90
2021/03/04 06:39:16;;;;;;;;;;;2.90;99.90;;;;;;5093317;28;19904;-91
2021/03/04 06:41:42;;;;;;;;;;;2.90;99.90;;;;;;5081707;28;19918;-89
2021/03/04 06:44:07;;;;;;;;;;;3.10;99.90;;;;;;5086214;28;19904;-90
2021/03/04 06:46:42;;;;;;;;;;;3.10;99.90;;;;;;5092631;28;19938;-90
2021/03/04 06:49:08;;;;;;;;;;;3.20;99.90;;;;;;5092752;28;19908;-90
2021/03/04 06:51:41;;;;;;;;;;;3.30;99.90;;;;;;5085702;28;19915;-89
2021/03/04 06:54:07;;;;;;;;;;;3.30;99.90;;;;;;5077980;28;20368;-89
2021/03/04 06:56:32;;;;;;;;;;;3.30;99.90;;;;;;5089265;28;19922;-89
2021/03/04 06:58:59;;;;;;;;;;;3.50;99.90;;;;;;5091819;28;19904;-89
2021/03/04 07:01:25;;;;;;;;;;;3.60;99.90;;;;;;5086982;28;19904;-90
2021/03/04 07:03:52;;;;;;;;;;;3.70;99.90;;;;;;5093127;28;19908;-89
2021/03/04 07:06:24;;;;;;;;;;;3.80;99.90;;;;;;5080812;28;19908;-90
2021/03/04 07:08:51;;;;;;;;;;;3.90;99.90;;;;;;5086697;28;19916;-89
2021/03/04 07:11:18;;;;;;;;;;;4.10;99.90;;;;;;5082540;28;20002;-89
2021/03/04 07:13:44;;;;;;;;;;;4.20;99.90;;;;;;5090278;28;19931;-91
2021/03/04 07:16:15;;;;;;;;;;;4.20;99.90;;;;;;5092733;28;20700;-89
2021/03/04 07:18:42;;;;;;;;;;;4.50;99.90;;;;;;5090746;28;19912;-90
2021/03/04 07:21:09;;;;;;;;;;;4.60;99.90;;;;;;5090231;28;19908;-89
2021/03/04 07:23:39;;;;;;;;;;;4.90;99.90;;;;;;5075676;28;19916;-90
2021/03/04 07:26:05;;;;;;;;;;;5.20;99.90;;;;;;5082360;28;19954;-89
2021/03/04 07:28:30;;;;;;;;;;;5.30;99.90;;;;;;5085192;28;19959;-90
2021/03/04 07:30:56;;;;;;;;;;;5.50;99.90;;;;;;5087152;28;19927;-90
2021/03/04 07:33:22;;;;;;;;;;;5.70;99.90;;;;;;5090478;28;19911;-90
2021/03/04 07:35:48;;;;;;;;;;;6.00;99.90;;;;;;5086005;28;19915;-88
2021/03/04 07:38:27;;;;;;;;;;;6.10;99.90;;;;;;5080967;28;20379;-89
2021/03/04 07:41:05;;;;;;;;;;;6.50;99.90;;;;;;5081085;28;19913;-90
2021/03/04 07:43:50;;;;;;;;;;;6.50;99.90;;;;;;5105815;28;19931;-90
2021/03/04 07:46:30;;;;;;;;;;;6.90;99.90;;;;;;5091108;28;19904;-90
2021/03/04 07:48:55;;;;;;;;;;;7.00;99.90;;;;;;5091655;28;19957;-90
2021/03/04 07:51:21;;;;;;;;;;;7.40;99.90;;;;;;5091119;28;20317;-90
2021/03/04 07:53:47;;;;;;;;;;;7.60;99.90;;;;;;5091431;28;19923;-90
2021/03/04 07:56:26;;;;;;;;;;;7.70;99.90;;;;;;5091285;28;19912;-90
2021/03/04 07:58:52;;;;;;;;;;;8.00;99.90;;;;;;5077116;28;19911;-90
2021/03/04 08:01:17;;;;;;;;;;;8.10;99.90;;;;;;5091089;28;19908;-90
2021/03/04 08:03:44;;;;;;;;;;;8.40;99.90;;;;;;5090071;28;19911;-91
2021/03/04 08:06:10;;;;;;;;;;;8.60;99.90;;;;;;5091453;28;20405;-90
2021/03/04 08:08:40;;;;;;;;;;;9.10;99.90;;;;;;5090691;28;19903;-91
2021/03/04 08:11:05;;;;;;;;;;;9.40;99.90;;;;;;5089538;28;19961;-91
2021/03/04 08:13:35;;;;;;;;;;;9.70;99.90;;;;;;5090807;28;20291;-90
2021/03/04 08:16:02;;;;;;;;;;;9.80;99.90;;;;;;5091169;28;20365;-91
2021/03/04 08:18:28;;;;;;;;;;;9.90;99.90;;;;;;5089549;28;19907;-90
2021/03/04 08:21:04;;;;;;;;;;;10.10;99.90;;;;;;5088754;28;19904;-90
2021/03/04 08:23:29;;;;;;;;;;;10.20;99.90;;;;;;5090884;28;20014;-91
2021/03/04 08:25:55;;;;;;;;;;;10.40;99.90;;;;;;5086304;28;20022;-91
2021/03/04 08:28:22;;;;;;;;;;;10.60;99.90;;;;;;5080885;28;19970;-91
2021/03/04 08:30:47;;;;;;;;;;;10.70;99.90;;;;;;5088845;28;19920;-90
2021/03/04 08:33:13;;;;;;;;;;;11.00;99.90;;;;;;5090539;28;19990;-91
2021/03/04 08:35:45;;;;;;;;;;;10.90;99.90;;;;;;5090215;28;19998;-90
2021/03/04 08:38:12;;;;;;;;;;;10.90;99.90;;;;;;5071107;28;20384;-91
2021/03/04 08:40:45;;;;;;;;;;;11.70;99.90;;;;;;5081243;28;19908;-91
2021/03/04 08:43:13;;;;;;;;;;;11.80;99.90;;;;;;5090327;28;19916;-91
2021/03/04 08:45:39;;;;;;;;;;;12.10;99.90;;;;;;5090492;28;19953;-91
2021/03/04 08:48:06;;;;;;;;;;;12.80;99.90;;;;;;5090501;28;19915;-91
2021/03/04 08:50:36;;;;;;;;;;;12.60;99.90;;;;;;5090443;28;19911;-91
2021/03/04 08:53:01;;;;;;;;;;;13.00;99.90;;;;;;5070347;28;19912;-91
2021/03/04 08:55:27;;;;;;;;;;;13.00;99.90;;;;;;5090428;28;19912;-91
2021/03/04 08:58:04;;;;;;;;;;;13.40;99.90;;;;;;5090474;28;19907;-90
2021/03/04 09:00:29;;;;;;;;;;;14.00;99.90;;;;;;5075328;28;19919;-91
2021/03/04 09:03:05;;;;;;;;;;;14.70;99.90;;;;;;5090423;28;19908;-91
2021/03/04 09:05:30;;;;;;;;;;;14.60;99.90;;;;;;5074730;28;20442;-91
2021/03/04 09:07:56;;;;;;;;;;;14.70;99.90;;;;;;5078243;28;20030;-91
2021/03/04 09:10:21;;;;;;;;;;;14.60;99.90;;;;;;5086736;28;19957;-91
2021/03/04 09:12:47;;;;;;;;;;;15.50;99.90;;;;;;5088636;28;19927;-91
2021/03/04 09:15:15;;;;;;;;;;;15.30;99.90;;;;;;5088805;28;20313;-91
2021/03/04 09:17:44;;;;;;;;;;;16.30;99.90;;;;;;5089983;28;19908;-91
2021/03/04 09:20:11;;;;;;;;;;;15.90;99.90;;;;;;5089310;28;19908;-91
2021/03/04 09:22:39;;;;;;;;;;;16.40;99.90;;;;;;5075538;28;19908;-91
2021/03/04 09:25:05;;;;;;;;;;;17.00;99.90;;;;;;5083159;28;19995;-91
2021/03/04 09:27:30;;;;;;;;;;;17.40;99.90;;;;;;5090241;28;19991;-91
2021/03/04 09:29:56;;;;;;;;;;;17.60;99.90;;;;;;5078505;28;20398;-91
2021/03/04 09:32:32;;;;;;;;;;;17.30;99.90;;;;;;5085459;28;20562;-91
2021/03/04 09:34:57;;;;;;;;;;;17.50;99.90;;;;;;5075803;28;19919;-92
2021/03/04 09:37:23;;;;;;;;;;;19.60;99.90;;;;;;5089997;28;20282;-91
2021/03/04 09:39:50;;;;;;;;;;;18.60;99.90;;;;;;5089520;28;20018;-91
2021/03/04 09:42:32;;;;;;;;;;;18.30;99.90;;;;;;5088830;28;19912;-91
2021/03/04 09:45:00;;;;;;;;;;;19.10;99.90;;;;;;5088510;28;19908;-91
2021/03/04 09:47:26;;;;;;;;;;;18.80;99.90;;;;;;5088980;28;19912;-91
2021/03/04 09:49:53;;;;;;;;;;;20.30;99.90;;;;;;5088356;28;20095;-91
2021/03/04 09:52:19;;;;;;;;;;;19.20;99.90;;;;;;5089024;28;19915;-91
2021/03/04 09:54:44;;;;;;;;;;;20.60;99.90;;;;;;5088137;28;20011;-92
2021/03/04 09:57:10;;;;;;;;;;;20.60;99.90;;;;;;5088585;28;20015;-92
2021/03/04 09:59:48;;;;;;;;;;;20.30;99.90;;;;;;5088730;28;19915;-91
2021/03/04 10:02:14;;;;;;;;;;;19.60;99.90;;;;;;5075539;28;19908;-91
2021/03/04 10:04:52;;;;;;;;;;;20.60;99.90;;;;;;5088656;28;19969;-91
2021/03/04 10:07:21;;;;;;;;;;;22.50;98.60;;;;;;5075832;28;19985;-92
2021/03/04 10:09:47;;;;;;;;;;;21.00;99.90;;;;;;5088270;28;19911;-91
2021/03/04 10:12:13;;;;;;;;;;;20.30;99.90;;;;;;5090033;28;19908;-92
2021/03/04 10:14:43;;;;;;;;;;;22.00;98.20;;;;;;5088602;28;19912;-91
2021/03/04 10:17:08;;;;;;;;;;;23.80;96.80;;;;;;5084749;28;20372;-92
2021/03/04 10:19:34;;;;;;;;;;;23.40;96.40;;;;;;5078382;28;19911;-91
2021/03/04 10:22:00;;;;;;;;;;;23.80;99.80;;;;;;5081797;28;19978;-92
2021/03/04 10:24:25;;;;;;;;;;;24.70;92.00;;;;;;5088836;28;20007;-92
2021/03/04 10:26:51;;;;;;;;;;;22.80;92.80;;;;;;5088469;28;19904;-92
2021/03/04 10:29:16;;;;;;;;;;;23.50;92.30;;;;;;5088694;28;20351;-92
2021/03/04 10:31:42;;;;;;;;;;;26.10;90.40;;;;;;5088699;28;19946;-92
2021/03/04 10:34:07;;;;;;;;;;;23.70;92.10;;;;;;5084550;28;19919;-92
2021/03/04 10:36:33;;;;;;;;;;;24.70;90.80;;;;;;5088082;28;19962;-92
2021/03/04 10:38:59;;;;;;;;;;;25.90;90.40;;;;;;5088191;28;19966;-92
2021/03/04 10:41:24;;;;;;;;;;;25.60;86.00;;;;;;5088257;28;19961;-92
2021/03/04 10:43:50;;;;;;;;;;;24.50;92.10;;;;;;5087967;28;19908;-92
2021/03/04 10:46:16;;;;;;;;;;;22.30;93.50;;;;;;5089794;28;20022;-92
2021/03/04 10:48:41;;;;;;;;;;;24.80;92.40;;;;;;5093347;28;19907;-92
2021/03/04 10:51:07;;;;;;;;;;;24.90;92.40;;;;;;5091600;28;20363;-92
2021/03/04 10:53:32;;;;;;;;;;;26.50;89.80;;;;;;5077567;28;19908;-92
2021/03/04 10:55:58;;;;;;;;;;;26.50;85.60;;;;;;5091617;28;19908;-92
2021/03/04 10:58:24;;;;;;;;;;;26.70;88.80;;;;;;5093139;28;19915;-92
2021/03/04 11:00:51;;;;;;;;;;;26.70;83.70;;;;;;5092055;28;19908;-92
2021/03/04 11:03:17;;;;;;;;;;;26.50;83.60;;;;;;5090050;28;19957;-92
2021/03/04 11:05:42;;;;;;;;;;;28.00;80.00;;;;;;5079313;28;19911;-91
2021/03/04 11:08:08;;;;;;;;;;;25.60;86.00;;;;;;5092914;28;19907;-92
2021/03/04 11:10:34;;;;;;;;;;;27.50;85.90;;;;;;5091190;28;19911;-92
2021/03/04 11:13:00;;;;;;;;;;;26.90;83.80;;;;;;5091544;28;20371;-92
2021/03/04 11:15:25;;;;;;;;;;;27.40;81.90;;;;;;5091122;28;19919;-92
2021/03/04 11:17:51;;;;;;;;;;;23.80;87.00;;;;;;5091373;28;19919;-92
2021/03/04 11:20:17;;;;;;;;;;;25.30;85.10;;;;;;5092132;28;20036;-91
2021/03/04 11:22:42;;;;;;;;;;;23.70;86.90;;;;;;5092243;28;19918;-92
2021/03/04 11:25:08;;;;;;;;;;;25.00;94.20;;;;;;5091161;28;19912;-92
2021/03/04 11:27:34;;;;;;;;;;;25.40;84.90;;;;;;5091137;28;19966;-92
2021/03/04 11:29:59;;;;;;;;;;;25.10;86.50;;;;;;5080449;28;20363;-92
2021/03/04 11:32:25;;;;;;;;;;;25.60;86.60;;;;;;5088514;28;20526;-91
2021/03/04 11:34:50;;;;;;;;;;;24.90;90.00;;;;;;5091042;28;19912;-92
2021/03/04 11:37:16;;;;;;;;;;;23.90;88.40;;;;;;5092276;28;19904;-91
2021/03/04 11:39:42;;;;;;;;;;;24.90;90.90;;;;;;5090891;28;20772;-92
2021/03/04 11:42:07;;;;;;;;;;;23.40;87.60;;;;;;5090980;28;19915;-91
2021/03/04 11:44:33;;;;;;;;;;;22.70;89.20;;;;;;5090794;28;19915;-91
2021/03/04 11:46:59;;;;;;;;;;;21.60;91.60;;;;;;5092361;28;20463;-92
2021/03/04 11:49:24;;;;;;;;;;;22.70;90.30;;;;;;5092109;28;19951;-92
2021/03/04 11:51:50;;;;;;;;;;;21.40;92.50;;;;;;5090403;28;19915;-92
2021/03/04 11:54:15;;;;;;;;;;;18.20;94.60;;;;;;5079086;28;19908;-92
2021/03/04 11:56:41;;;;;;;;;;;16.80;97.00;;;;;;5087707;28;20336;-91
2021/03/04 11:59:11;;;;;;;;;;;16.20;98.50;;;;;;5091881;28;19904;-91
2021/03/04 12:01:37;;;;;;;;;;;16.20;99.00;;;;;;5091195;28;19908;-92
2021/03/04 12:04:04;;;;;;;;;;;16.20;99.40;;;;;;5090917;28;19912;-92
2021/03/04 12:06:30;;;;;;;;;;;16.20;99.20;;;;;;5090249;28;19957;-92
2021/03/04 12:08:55;;;;;;;;;;;15.90;99.50;;;;;;5076629;28;19904;-92
2021/03/04 12:11:21;;;;;;;;;;;15.70;99.70;;;;;;5090066;28;19911;-91
2021/03/04 12:13:47;;;;;;;;;;;15.70;99.80;;;;;;5090382;28;19908;-92
2021/03/04 12:16:12;;;;;;;;;;;15.50;99.90;;;;;;5091968;28;19939;-92
2021/03/04 12:18:38;;;;;;;;;;;16.10;99.90;;;;;;5090171;28;20343;-92
2021/03/04 12:21:05;;;;;;;;;;;16.20;99.90;;;;;;5091064;28;19904;-92
2021/03/04 12:23:31;;;;;;;;;;;16.30;99.80;;;;;;5084143;28;19907;-92
2021/03/04 12:25:56;;;;;;;;;;;16.10;99.90;;;;;;5090273;28;19911;-92
2021/03/04 12:28:22;;;;;;;;;;;16.20;99.90;;;;;;5089898;28;19912;-92
2021/03/04 12:30:48;;;;;;;;;;;16.20;99.90;;;;;;5090081;28;19948;-92
2021/03/04 12:33:14;;;;;;;;;;;16.20;99.90;;;;;;5089880;28;19908;-92
2021/03/04 12:35:40;;;;;;;;;;;15.90;99.90;;;;;;5090091;28;19912;-92
2021/03/04 12:38:05;;;;;;;;;;;16.00;99.90;;;;;;5090069;28;19908;-92
2021/03/04 12:40:32;;;;;;;;;;;15.60;99.90;;;;;;5090026;28;19911;-92
2021/03/04 12:42:58;;;;;;;;;;;15.80;99.90;;;;;;5090167;28;20276;-92
2021/03/04 12:45:23;;;;;;;;;;;15.70;99.90;;;;;;5089692;28;19911;-92
2021/03/04 12:47:50;;;;;;;;;;;15.60;99.90;;;;;;5090079;28;19967;-92
2021/03/04 12:50:15;;;;;;;;;;;15.50;99.90;;;;;;5089898;28;19935;-92
2021/03/04 12:52:41;;;;;;;;;;;15.30;99.90;;;;;;5089921;28;20714;-92
2021/03/04 12:55:07;;;;;;;;;;;15.60;99.90;;;;;;5089479;28;20402;-92
2021/03/04 12:57:32;;;;;;;;;;;15.50;99.90;;;;;;5089832;28;20406;-92
2021/03/04 12:59:58;;;;;;;;;;;15.50;99.90;;;;;;5089964;28;19946;-92
2021/03/04 13:02:24;;;;;;;;;;;15.30;99.90;;;;;;5091220;28;19911;-92
2021/03/04 13:04:49;;;;;;;;;;;15.00;99.90;;;;;;5090052;28;19904;-92
2021/03/04 13:07:15;;;;;;;;;;;15.40;99.90;;;;;;5089736;28;19912;-91
2021/03/04 13:09:40;;;;;;;;;;;15.40;99.90;;;;;;5088706;28;20014;-92
2021/03/04 13:12:07;;;;;;;;;;;15.40;99.90;;;;;;5089927;28;20302;-92
2021/03/04 13:14:32;;;;;;;;;;;15.30;99.90;;;;;;5089858;28;19912;-92
2021/03/04 13:16:59;;;;;;;;;;;15.20;99.90;;;;;;5089543;28;19910;-92
2021/03/04 13:19:24;;;;;;;;;;;15.10;99.90;;;;;;5089230;28;19904;-92
2021/03/04 13:21:50;;;;;;;;;;;15.20;99.90;;;;;;5083975;28;20004;-92
2021/03/04 13:24:15;;;;;;;;;;;15.30;99.90;;;;;;5089379;28;19948;-92
2021/03/04 13:26:42;;;;;;;;;;;15.50;99.90;;;;;;5080442;28;19938;-92
2021/03/04 13:29:08;;;;;;;;;;;15.40;99.90;;;;;;5075189;28;19935;-92
2021/03/04 13:31:33;;;;;;;;;;;15.50;99.90;;;;;;5075936;28;19920;-92
2021/03/04 13:33:59;;;;;;;;;;;15.30;99.90;;;;;;5077498;28;20380;-92
2021/03/04 13:36:25;;;;;;;;;;;15.40;99.90;;;;;;5076677;28;19962;-92
2021/03/04 13:38:50;;;;;;;;;;;15.40;99.90;;;;;;5075283;28;20011;-91
2021/03/04 13:41:16;;;;;;;;;;;15.30;99.90;;;;;;5070319;28;19909;-91
2021/03/04 13:43:42;;;;;;;;;;;15.10;99.90;;;;;;5074584;28;19995;-91
2021/03/04 13:46:08;;;;;;;;;;;15.30;99.90;;;;;;5081419;28;19961;-92
2021/03/04 13:48:34;;;;;;;;;;;15.20;99.90;;;;;;5072422;28;19907;-92
2021/03/04 13:51:00;;;;;;;;;;;15.20;99.90;;;;;;5074377;28;19920;-91
2021/03/04 13:53:26;;;;;;;;;;;14.90;99.90;;;;;;5074286;28;19974;-90
2021/03/04 13:55:52;;;;;;;;;;;14.90;99.90;;;;;;5073770;28;19959;-91
2021/03/04 13:58:18;;;;;;;;;;;15.00;99.90;;;;;;5073823;28;19981;-91
2021/03/04 14:00:44;;;;;;;;;;;14.80;99.90;;;;;;5066771;28;20384;-90
2021/03/04 14:03:10;;;;;;;;;;;14.90;99.90;;;;;;5079912;28;19993;-90
2021/03/04 14:05:36;;;;;;;;;;;14.90;99.90;;;;;;5075461;28;19904;-92
2021/03/04 14:08:02;;;;;;;;;;;15.20;99.90;;;;;;5090327;28;19904;-91
2021/03/04 14:10:28;;;;;;;;;;;15.00;99.90;;;;;;5103554;28;19908;-92
2021/03/04 14:12:54;;;;;;;;;;;15.00;99.90;;;;;;5093211;28;20383;-91
2021/03/04 14:15:20;;;;;;;;;;;15.10;99.90;;;;;;5077154;28;19908;-92
2021/03/04 14:17:45;;;;;;;;;;;15.10;99.90;;;;;;5076649;28;19912;-91
2021/03/04 14:20:13;;;;;;;;;;;15.10;99.90;;;;;;5079615;28;20011;-91
2021/03/04 14:22:42;;;;;;;;;;;15.10;99.90;;;;;;5078880;28;20011;-92